sensor_id;sensor_type;location;lat;lon;timestamp;temperature;humidity
40636;DHT22;26642;55.766;37.828;2023-07-08T00:01:17;23.20;92.10
40636;DHT22;26642;55.766;37.828;2023-07-08T00:03:43;23.10;92.10
40636;DHT22;26642;55.766;37.828;2023-07-08T00:06:22;23.10;92.00
40636;DHT22;26642;55.766;37.828;2023-07-08T00:08:48;23.10;91.90
40636;DHT22;26642;55.766;37.828;2023-07-08T00:11:15;23.10;91.90
40636;DHT22;26642;55.766;37.828;2023-07-08T00:13:42;23.10;91.90
40636;DHT22;26642;55.766;37.828;2023-07-08T00:16:12;23.10;91.80
40636;DHT22;26642;55.766;37.828;2023-07-08T00:18:38;23.00;91.80
40636;DHT22;26642;55.766;37.828;2023-07-08T00:21:09;23.10;92.10
40636;DHT22;26642;55.766;37.828;2023-07-08T00:23:35;23.10;91.80
40636;DHT22;26642;55.766;37.828;2023-07-08T00:26:04;23.10;91.90
40636;DHT22;26642;55.766;37.828;2023-07-08T00:28:34;23.10;91.80
40636;DHT22;26642;55.766;37.828;2023-07-08T00:31:00;23.00;91.80
40636;DHT22;26642;55.766;37.828;2023-07-08T00:33:26;23.00;91.80
40636;DHT22;26642;55.766;37.828;2023-07-08T00:35:52;23.10;91.80
40636;DHT22;26642;55.766;37.828;2023-07-08T00:38:27;23.10;91.80
40636;DHT22;26642;55.766;37.828;2023-07-08T00:40:58;23.10;91.70
40636;DHT22;26642;55.766;37.828;2023-07-08T00:43:39;23.00;91.40
40636;DHT22;26642;55.766;37.828;2023-07-08T00:51:36;23.00;91.60
40636;DHT22;26642;55.766;37.828;2023-07-08T00:54:10;23.00;91.60
40636;DHT22;26642;55.766;37.828;2023-07-08T00:56:47;23.10;91.60
40636;DHT22;26642;55.766;37.828;2023-07-08T01:01:48;23.00;91.50
40636;DHT22;26642;55.766;37.828;2023-07-08T01:04:50;23.10;91.50
40636;DHT22;26642;55.766;37.828;2023-07-08T01:07:19;23.00;91.40
40636;DHT22;26642;55.766;37.828;2023-07-08T01:09:50;22.90;91.40
40636;DHT22;26642;55.766;37.828;2023-07-08T01:12:22;22.90;91.50
40636;DHT22;26642;55.766;37.828;2023-07-08T01:14:51;22.90;91.60
40636;DHT22;26642;55.766;37.828;2023-07-08T01:17:21;22.90;91.60
40636;DHT22;26642;55.766;37.828;2023-07-08T01:19:47;22.90;91.60
40636;DHT22;26642;55.766;37.828;2023-07-08T01:22:14;23.00;91.50
40636;DHT22;26642;55.766;37.828;2023-07-08T01:24:43;22.90;91.30
40636;DHT22;26642;55.766;37.828;2023-07-08T01:27:12;23.00;91.40
40636;DHT22;26642;55.766;37.828;2023-07-08T01:29:39;22.90;91.40
40636;DHT22;26642;55.766;37.828;2023-07-08T01:32:05;23.00;91.40
40636;DHT22;26642;55.766;37.828;2023-07-08T01:34:32;23.00;91.30
40636;DHT22;26642;55.766;37.828;2023-07-08T01:37:00;23.10;91.10
40636;DHT22;26642;55.766;37.828;2023-07-08T01:39:30;23.00;91.00
40636;DHT22;26642;55.766;37.828;2023-07-08T01:41:57;23.10;90.90
40636;DHT22;26642;55.766;37.828;2023-07-08T01:44:32;23.10;90.80
40636;DHT22;26642;55.766;37.828;2023-07-08T01:47:12;23.10;90.80
40636;DHT22;26642;55.766;37.828;2023-07-08T01:49:40;23.00;90.70
40636;DHT22;26642;55.766;37.828;2023-07-08T01:52:08;23.00;90.70
40636;DHT22;26642;55.766;37.828;2023-07-08T01:54:34;23.00;90.60
40636;DHT22;26642;55.766;37.828;2023-07-08T01:57:00;23.00;90.80
40636;DHT22;26642;55.766;37.828;2023-07-08T01:59:28;23.00;90.80
40636;DHT22;26642;55.766;37.828;2023-07-08T02:01:55;23.10;90.90
40636;DHT22;26642;55.766;37.828;2023-07-08T02:04:22;23.10;90.80
40636;DHT22;26642;55.766;37.828;2023-07-08T02:06:57;23.10;90.70
40636;DHT22;26642;55.766;37.828;2023-07-08T02:09:24;23.00;90.50
40636;DHT22;26642;55.766;37.828;2023-07-08T02:11:54;23.00;90.50
40636;DHT22;26642;55.766;37.828;2023-07-08T02:14:20;23.00;90.70
40636;DHT22;26642;55.766;37.828;2023-07-08T02:16:46;23.00;90.70
40636;DHT22;26642;55.766;37.828;2023-07-08T02:19:13;23.00;90.50
40636;DHT22;26642;55.766;37.828;2023-07-08T02:21:39;23.00;90.60
40636;DHT22;26642;55.766;37.828;2023-07-08T02:24:06;23.10;90.40
40636;DHT22;26642;55.766;37.828;2023-07-08T02:26:32;23.10;90.40
40636;DHT22;26642;55.766;37.828;2023-07-08T02:28:59;23.10;90.50
40636;DHT22;26642;55.766;37.828;2023-07-08T02:31:25;23.10;90.70
40636;DHT22;26642;55.766;37.828;2023-07-08T02:33:52;23.20;90.30
40636;DHT22;26642;55.766;37.828;2023-07-08T02:36:18;23.20;90.30
40636;DHT22;26642;55.766;37.828;2023-07-08T02:38:44;23.20;90.00
40636;DHT22;26642;55.766;37.828;2023-07-08T02:41:10;23.20;90.20
40636;DHT22;26642;55.766;37.828;2023-07-08T02:43:38;23.20;90.00
40636;DHT22;26642;55.766;37.828;2023-07-08T02:46:05;23.20;90.00
40636;DHT22;26642;55.766;37.828;2023-07-08T02:48:31;23.30;90.00
40636;DHT22;26642;55.766;37.828;2023-07-08T02:51:02;23.30;89.70
40636;DHT22;26642;55.766;37.828;2023-07-08T02:53:28;23.30;90.00
40636;DHT22;26642;55.766;37.828;2023-07-08T02:55:54;23.30;90.00
40636;DHT22;26642;55.766;37.828;2023-07-08T02:58:20;23.30;90.00
40636;DHT22;26642;55.766;37.828;2023-07-08T03:00:52;23.30;89.90
40636;DHT22;26642;55.766;37.828;2023-07-08T03:03:18;23.20;89.40
40636;DHT22;26642;55.766;37.828;2023-07-08T03:05:53;23.20;89.50
40636;DHT22;26642;55.766;37.828;2023-07-08T03:08:19;23.10;89.70
40636;DHT22;26642;55.766;37.828;2023-07-08T03:10:48;23.20;89.60
40636;DHT22;26642;55.766;37.828;2023-07-08T03:13:14;23.20;90.00
40636;DHT22;26642;55.766;37.828;2023-07-08T03:15:44;23.20;89.90
40636;DHT22;26642;55.766;37.828;2023-07-08T03:18:11;23.20;89.90
40636;DHT22;26642;55.766;37.828;2023-07-08T03:20:39;23.20;89.70
40636;DHT22;26642;55.766;37.828;2023-07-08T03:23:05;23.20;89.90
40636;DHT22;26642;55.766;37.828;2023-07-08T03:25:32;23.30;89.90
40636;DHT22;26642;55.766;37.828;2023-07-08T03:27:59;23.30;89.70
40636;DHT22;26642;55.766;37.828;2023-07-08T03:30:26;23.30;89.50
40636;DHT22;26642;55.766;37.828;2023-07-08T03:32:52;23.30;89.70
40636;DHT22;26642;55.766;37.828;2023-07-08T03:35:21;23.30;90.00
40636;DHT22;26642;55.766;37.828;2023-07-08T03:37:48;23.30;89.90
40636;DHT22;26642;55.766;37.828;2023-07-08T03:40:13;23.40;89.50
40636;DHT22;26642;55.766;37.828;2023-07-08T03:42:39;23.60;89.00
40636;DHT22;26642;55.766;37.828;2023-07-08T03:45:06;23.80;88.40
40636;DHT22;26642;55.766;37.828;2023-07-08T03:47:32;23.90;88.30
40636;DHT22;26642;55.766;37.828;2023-07-08T03:49:59;24.10;88.20
40636;DHT22;26642;55.766;37.828;2023-07-08T03:52:25;24.30;87.30
40636;DHT22;26642;55.766;37.828;2023-07-08T03:54:51;24.40;86.50
40636;DHT22;26642;55.766;37.828;2023-07-08T03:57:17;24.40;85.70
40636;DHT22;26642;55.766;37.828;2023-07-08T03:59:46;24.60;85.00
40636;DHT22;26642;55.766;37.828;2023-07-08T04:02:13;24.80;85.10
40636;DHT22;26642;55.766;37.828;2023-07-08T04:04:39;24.80;83.40
40636;DHT22;26642;55.766;37.828;2023-07-08T04:07:06;24.80;83.10
40636;DHT22;26642;55.766;37.828;2023-07-08T04:09:32;24.60;83.40
40636;DHT22;26642;55.766;37.828;2023-07-08T04:11:58;24.60;84.00
40636;DHT22;26642;55.766;37.828;2023-07-08T04:14:25;24.60;83.50
40636;DHT22;26642;55.766;37.828;2023-07-08T04:16:57;24.50;83.90
40636;DHT22;26642;55.766;37.828;2023-07-08T04:19:24;24.40;84.00
40636;DHT22;26642;55.766;37.828;2023-07-08T04:21:52;24.40;84.70
40636;DHT22;26642;55.766;37.828;2023-07-08T04:24:18;24.30;84.30
40636;DHT22;26642;55.766;37.828;2023-07-08T04:26:47;24.30;85.00
40636;DHT22;26642;55.766;37.828;2023-07-08T04:29:15;24.30;84.70
40636;DHT22;26642;55.766;37.828;2023-07-08T04:31:41;24.40;84.40
40636;DHT22;26642;55.766;37.828;2023-07-08T04:34:08;24.50;84.50
40636;DHT22;26642;55.766;37.828;2023-07-08T04:36:34;24.70;84.50
40636;DHT22;26642;55.766;37.828;2023-07-08T04:39:01;24.90;83.30
40636;DHT22;26642;55.766;37.828;2023-07-08T04:41:28;24.90;82.80
40636;DHT22;26642;55.766;37.828;2023-07-08T04:43:54;24.80;82.70
40636;DHT22;26642;55.766;37.828;2023-07-08T04:46:36;24.50;83.50
40636;DHT22;26642;55.766;37.828;2023-07-08T04:49:03;24.50;83.80
40636;DHT22;26642;55.766;37.828;2023-07-08T04:51:30;24.40;83.90
40636;DHT22;26642;55.766;37.828;2023-07-08T04:53:56;24.40;83.90
40636;DHT22;26642;55.766;37.828;2023-07-08T04:56:22;24.40;84.20
40636;DHT22;26642;55.766;37.828;2023-07-08T04:58:49;24.30;83.70
40636;DHT22;26642;55.766;37.828;2023-07-08T05:01:16;24.20;84.20
40636;DHT22;26642;55.766;37.828;2023-07-08T05:03:42;24.20;84.20
40636;DHT22;26642;55.766;37.828;2023-07-08T05:06:07;24.10;84.40
40636;DHT22;26642;55.766;37.828;2023-07-08T05:08:33;23.90;84.60
40636;DHT22;26642;55.766;37.828;2023-07-08T05:10:59;23.90;85.20
40636;DHT22;26642;55.766;37.828;2023-07-08T05:13:25;23.80;84.90
40636;DHT22;26642;55.766;37.828;2023-07-08T05:15:51;23.60;85.30
40636;DHT22;26642;55.766;37.828;2023-07-08T05:18:17;23.60;85.80
40636;DHT22;26642;55.766;37.828;2023-07-08T05:20:50;23.60;86.50
40636;DHT22;26642;55.766;37.828;2023-07-08T05:23:16;23.60;87.00
40636;DHT22;26642;55.766;37.828;2023-07-08T05:25:43;23.60;86.70
40636;DHT22;26642;55.766;37.828;2023-07-08T05:28:09;23.70;86.10
40636;DHT22;26642;55.766;37.828;2023-07-08T05:30:35;23.60;86.40
40636;DHT22;26642;55.766;37.828;2023-07-08T05:33:01;23.50;85.90
40636;DHT22;26642;55.766;37.828;2023-07-08T05:35:27;23.40;86.10
40636;DHT22;26642;55.766;37.828;2023-07-08T05:37:53;23.30;85.90
40636;DHT22;26642;55.766;37.828;2023-07-08T05:40:19;23.30;86.60
40636;DHT22;26642;55.766;37.828;2023-07-08T05:42:45;23.30;86.80
40636;DHT22;26642;55.766;37.828;2023-07-08T05:45:11;23.40;87.00
40636;DHT22;26642;55.766;37.828;2023-07-08T05:47:37;23.40;87.10
40636;DHT22;26642;55.766;37.828;2023-07-08T05:50:03;23.40;87.10
40636;DHT22;26642;55.766;37.828;2023-07-08T05:52:29;23.50;86.80
40636;DHT22;26642;55.766;37.828;2023-07-08T05:54:55;23.50;86.50
40636;DHT22;26642;55.766;37.828;2023-07-08T05:57:22;23.50;86.20
40636;DHT22;26642;55.766;37.828;2023-07-08T05:59:49;23.60;86.30
40636;DHT22;26642;55.766;37.828;2023-07-08T06:02:17;23.60;86.10
40636;DHT22;26642;55.766;37.828;2023-07-08T06:04:45;23.60;86.50
40636;DHT22;26642;55.766;37.828;2023-07-08T06:07:11;23.60;86.40
40636;DHT22;26642;55.766;37.828;2023-07-08T06:09:37;23.70;86.20
40636;DHT22;26642;55.766;37.828;2023-07-08T06:12:03;23.60;85.70
40636;DHT22;26642;55.766;37.828;2023-07-08T06:14:29;23.60;86.00
40636;DHT22;26642;55.766;37.828;2023-07-08T06:16:55;23.70;85.60
40636;DHT22;26642;55.766;37.828;2023-07-08T06:19:21;23.70;85.30
40636;DHT22;26642;55.766;37.828;2023-07-08T06:21:47;23.70;85.50
40636;DHT22;26642;55.766;37.828;2023-07-08T06:24:13;23.70;85.50
40636;DHT22;26642;55.766;37.828;2023-07-08T06:26:39;23.50;84.30
40636;DHT22;26642;55.766;37.828;2023-07-08T06:29:05;23.50;84.60
40636;DHT22;26642;55.766;37.828;2023-07-08T06:31:31;23.50;84.90
40636;DHT22;26642;55.766;37.828;2023-07-08T06:33:57;23.50;84.60
40636;DHT22;26642;55.766;37.828;2023-07-08T06:36:23;23.60;84.70
40636;DHT22;26642;55.766;37.828;2023-07-08T06:38:49;23.40;84.70
40636;DHT22;26642;55.766;37.828;2023-07-08T06:41:15;23.30;84.90
40636;DHT22;26642;55.766;37.828;2023-07-08T06:43:41;23.30;85.50
40636;DHT22;26642;55.766;37.828;2023-07-08T06:46:11;23.40;86.00
40636;DHT22;26642;55.766;37.828;2023-07-08T06:48:37;23.40;85.20
40636;DHT22;26642;55.766;37.828;2023-07-08T06:51:03;23.30;84.60
40636;DHT22;26642;55.766;37.828;2023-07-08T06:53:29;23.40;85.50
40636;DHT22;26642;55.766;37.828;2023-07-08T06:55:55;23.50;85.40
40636;DHT22;26642;55.766;37.828;2023-07-08T06:58:21;23.40;84.90
40636;DHT22;26642;55.766;37.828;2023-07-08T07:00:47;23.40;85.00
40636;DHT22;26642;55.766;37.828;2023-07-08T07:03:13;23.50;85.50
40636;DHT22;26642;55.766;37.828;2023-07-08T07:05:39;23.50;85.20
40636;DHT22;26642;55.766;37.828;2023-07-08T07:08:05;23.50;84.60
40636;DHT22;26642;55.766;37.828;2023-07-08T07:10:34;23.30;84.60
40636;DHT22;26642;55.766;37.828;2023-07-08T07:13:00;23.40;84.90
40636;DHT22;26642;55.766;37.828;2023-07-08T07:15:26;23.50;84.40
40636;DHT22;26642;55.766;37.828;2023-07-08T07:17:52;23.60;85.20
40636;DHT22;26642;55.766;37.828;2023-07-08T07:20:18;23.60;84.40
40636;DHT22;26642;55.766;37.828;2023-07-08T07:22:44;23.50;83.80
40636;DHT22;26642;55.766;37.828;2023-07-08T07:25:10;23.60;84.00
40636;DHT22;26642;55.766;37.828;2023-07-08T07:27:37;23.60;83.70
40636;DHT22;26642;55.766;37.828;2023-07-08T07:30:03;23.60;83.00
40636;DHT22;26642;55.766;37.828;2023-07-08T07:32:30;23.60;84.20
40636;DHT22;26642;55.766;37.828;2023-07-08T07:34:58;23.60;82.30
40636;DHT22;26642;55.766;37.828;2023-07-08T07:37:25;23.60;82.10
40636;DHT22;26642;55.766;37.828;2023-07-08T07:39:51;23.50;82.10
40636;DHT22;26642;55.766;37.828;2023-07-08T07:42:18;23.50;81.90
40636;DHT22;26642;55.766;37.828;2023-07-08T07:44:45;23.60;82.70
40636;DHT22;26642;55.766;37.828;2023-07-08T07:47:11;23.70;82.20
40636;DHT22;26642;55.766;37.828;2023-07-08T07:49:38;23.70;81.70
40636;DHT22;26642;55.766;37.828;2023-07-08T07:52:04;23.80;82.40
40636;DHT22;26642;55.766;37.828;2023-07-08T07:54:31;23.90;81.90
40636;DHT22;26642;55.766;37.828;2023-07-08T07:56:57;23.90;81.50
40636;DHT22;26642;55.766;37.828;2023-07-08T07:59:23;24.00;81.10
40636;DHT22;26642;55.766;37.828;2023-07-08T08:01:49;24.00;81.40
40636;DHT22;26642;55.766;37.828;2023-07-08T08:04:14;24.00;80.10
40636;DHT22;26642;55.766;37.828;2023-07-08T08:06:40;24.10;80.70
40636;DHT22;26642;55.766;37.828;2023-07-08T08:09:07;24.10;80.60
40636;DHT22;26642;55.766;37.828;2023-07-08T08:11:33;24.20;79.50
40636;DHT22;26642;55.766;37.828;2023-07-08T08:14:00;24.10;79.40
40636;DHT22;26642;55.766;37.828;2023-07-08T08:16:26;24.10;79.80
40636;DHT22;26642;55.766;37.828;2023-07-08T08:18:52;24.20;79.90
40636;DHT22;26642;55.766;37.828;2023-07-08T08:21:18;24.10;79.00
40636;DHT22;26642;55.766;37.828;2023-07-08T08:23:44;24.20;79.50
40636;DHT22;26642;55.766;37.828;2023-07-08T08:26:10;24.20;80.30
40636;DHT22;26642;55.766;37.828;2023-07-08T08:28:36;24.20;80.00
40636;DHT22;26642;55.766;37.828;2023-07-08T08:31:02;24.20;80.40
40636;DHT22;26642;55.766;37.828;2023-07-08T08:33:28;24.20;79.00
40636;DHT22;26642;55.766;37.828;2023-07-08T08:35:53;24.10;79.20
40636;DHT22;26642;55.766;37.828;2023-07-08T08:38:19;24.20;79.50
40636;DHT22;26642;55.766;37.828;2023-07-08T08:40:46;24.10;78.40
40636;DHT22;26642;55.766;37.828;2023-07-08T08:43:21;24.00;79.40
40636;DHT22;26642;55.766;37.828;2023-07-08T08:45:57;24.00;79.40
40636;DHT22;26642;55.766;37.828;2023-07-08T08:48:24;24.00;79.90
40636;DHT22;26642;55.766;37.828;2023-07-08T08:50:52;24.00;78.50
40636;DHT22;26642;55.766;37.828;2023-07-08T08:53:21;23.90;79.60
40636;DHT22;26642;55.766;37.828;2023-07-08T08:55:56;24.00;80.00
40636;DHT22;26642;55.766;37.828;2023-07-08T09:00:58;24.00;80.30
40636;DHT22;26642;55.766;37.828;2023-07-08T09:05:59;24.00;80.90
40636;DHT22;26642;55.766;37.828;2023-07-08T09:08:35;24.10;80.70
40636;DHT22;26642;55.766;37.828;2023-07-08T09:12:10;24.10;80.60
40636;DHT22;26642;55.766;37.828;2023-07-08T09:14:03;24.10;80.50
40636;DHT22;26642;55.766;37.828;2023-07-08T09:19:26;24.10;80.70
40636;DHT22;26642;55.766;37.828;2023-07-08T09:22:06;24.10;80.60
40636;DHT22;26642;55.766;37.828;2023-07-08T09:24:45;24.10;80.50
40636;DHT22;26642;55.766;37.828;2023-07-08T09:27:11;24.10;79.90
40636;DHT22;26642;55.766;37.828;2023-07-08T09:29:37;24.20;80.20
40636;DHT22;26642;55.766;37.828;2023-07-08T09:32:15;24.20;79.90
40636;DHT22;26642;55.766;37.828;2023-07-08T09:34:49;24.30;79.80
40636;DHT22;26642;55.766;37.828;2023-07-08T09:39:49;24.30;79.40
40636;DHT22;26642;55.766;37.828;2023-07-08T09:42:15;24.40;79.30
40636;DHT22;26642;55.766;37.828;2023-07-08T09:44:45;24.40;79.70
40636;DHT22;26642;55.766;37.828;2023-07-08T09:47:35;24.50;79.10
40636;DHT22;26642;55.766;37.828;2023-07-08T09:50:04;24.60;78.30
40636;DHT22;26642;55.766;37.828;2023-07-08T09:52:35;24.60;78.00
40636;DHT22;26642;55.766;37.828;2023-07-08T09:55:02;24.60;78.10
40636;DHT22;26642;55.766;37.828;2023-07-08T09:57:32;24.50;77.90
40636;DHT22;26642;55.766;37.828;2023-07-08T10:00:02;24.60;78.00
40636;DHT22;26642;55.766;37.828;2023-07-08T10:02:51;24.70;76.80
40636;DHT22;26642;55.766;37.828;2023-07-08T10:05:23;24.70;75.80
40636;DHT22;26642;55.766;37.828;2023-07-08T10:07:55;24.60;76.20
40636;DHT22;26642;55.766;37.828;2023-07-08T10:12:59;24.70;77.60
40636;DHT22;26642;55.766;37.828;2023-07-08T10:15:34;24.80;76.80
40636;DHT22;26642;55.766;37.828;2023-07-08T10:18:01;24.80;76.30
40636;DHT22;26642;55.766;37.828;2023-07-08T10:20:44;24.90;75.70
40636;DHT22;26642;55.766;37.828;2023-07-08T10:23:15;25.00;75.60
40636;DHT22;26642;55.766;37.828;2023-07-08T10:25:54;25.00;75.20
40636;DHT22;26642;55.766;37.828;2023-07-08T10:28:40;24.90;74.50
40636;DHT22;26642;55.766;37.828;2023-07-08T10:31:30;24.80;74.80
40636;DHT22;26642;55.766;37.828;2023-07-08T10:37:28;24.90;75.30
40636;DHT22;26642;55.766;37.828;2023-07-08T10:50:43;24.90;75.00
40636;DHT22;26642;55.766;37.828;2023-07-08T10:56:21;24.80;73.20
40636;DHT22;26642;55.766;37.828;2023-07-08T11:04:11;24.80;72.30
40636;DHT22;26642;55.766;37.828;2023-07-08T11:06:53;24.80;71.80
40636;DHT22;26642;55.766;37.828;2023-07-08T11:09:49;24.80;72.90
40636;DHT22;26642;55.766;37.828;2023-07-08T11:15:23;25.00;72.20
40636;DHT22;26642;55.766;37.828;2023-07-08T11:21:16;25.00;72.90
40636;DHT22;26642;55.766;37.828;2023-07-08T11:23:52;25.00;72.70
40636;DHT22;26642;55.766;37.828;2023-07-08T11:28:58;25.10;73.40
40636;DHT22;26642;55.766;37.828;2023-07-08T11:31:27;25.10;72.10
40636;DHT22;26642;55.766;37.828;2023-07-08T11:33:54;25.10;72.10
40636;DHT22;26642;55.766;37.828;2023-07-08T11:36:23;25.10;72.00
40636;DHT22;26642;55.766;37.828;2023-07-08T11:38:53;25.10;71.60
40636;DHT22;26642;55.766;37.828;2023-07-08T11:41:25;25.00;71.70
40636;DHT22;26642;55.766;37.828;2023-07-08T11:44:03;24.90;70.00
40636;DHT22;26642;55.766;37.828;2023-07-08T11:46:33;24.90;70.60
40636;DHT22;26642;55.766;37.828;2023-07-08T11:49:03;24.80;68.90
40636;DHT22;26642;55.766;37.828;2023-07-08T11:51:37;24.90;70.20
40636;DHT22;26642;55.766;37.828;2023-07-08T11:54:30;24.80;68.80
40636;DHT22;26642;55.766;37.828;2023-07-08T11:59:24;24.90;68.90
40636;DHT22;26642;55.766;37.828;2023-07-08T12:04:31;24.90;70.50
40636;DHT22;26642;55.766;37.828;2023-07-08T12:07:20;25.00;71.80
40636;DHT22;26642;55.766;37.828;2023-07-08T12:12:41;25.00;69.80
40636;DHT22;26642;55.766;37.828;2023-07-08T12:15:31;25.00;69.90
40636;DHT22;26642;55.766;37.828;2023-07-08T12:18:16;25.10;70.30
40636;DHT22;26642;55.766;37.828;2023-07-08T12:20:48;25.20;70.90
40636;DHT22;26642;55.766;37.828;2023-07-08T12:23:20;25.20;69.90
40636;DHT22;26642;55.766;37.828;2023-07-08T12:25:47;25.00;67.70
40636;DHT22;26642;55.766;37.828;2023-07-08T12:28:14;24.90;67.90
40636;DHT22;26642;55.766;37.828;2023-07-08T12:30:43;24.90;68.90
40636;DHT22;26642;55.766;37.828;2023-07-08T12:33:14;24.90;69.40
40636;DHT22;26642;55.766;37.828;2023-07-08T12:35:41;25.00;65.70
40636;DHT22;26642;55.766;37.828;2023-07-08T12:38:19;25.10;63.80
40636;DHT22;26642;55.766;37.828;2023-07-08T12:40:46;24.90;61.50
40636;DHT22;26642;55.766;37.828;2023-07-08T12:43:12;24.80;63.40
40636;DHT22;26642;55.766;37.828;2023-07-08T12:45:39;24.90;65.40
40636;DHT22;26642;55.766;37.828;2023-07-08T12:48:05;25.00;65.90
40636;DHT22;26642;55.766;37.828;2023-07-08T12:50:31;25.00;64.20
40636;DHT22;26642;55.766;37.828;2023-07-08T12:52:57;25.10;64.80
40636;DHT22;26642;55.766;37.828;2023-07-08T12:55:23;25.20;66.30
40636;DHT22;26642;55.766;37.828;2023-07-08T12:57:51;25.10;64.90
40636;DHT22;26642;55.766;37.828;2023-07-08T13:00:30;25.20;66.60
40636;DHT22;26642;55.766;37.828;2023-07-08T13:03:10;25.20;66.90
40636;DHT22;26642;55.766;37.828;2023-07-08T13:05:40;25.10;65.00
40636;DHT22;26642;55.766;37.828;2023-07-08T13:08:11;25.10;65.20
40636;DHT22;26642;55.766;37.828;2023-07-08T13:10:38;25.00;64.10
40636;DHT22;26642;55.766;37.828;2023-07-08T13:13:08;25.00;65.40
40636;DHT22;26642;55.766;37.828;2023-07-08T13:15:39;25.00;66.20
40636;DHT22;26642;55.766;37.828;2023-07-08T13:18:30;25.00;67.50
40636;DHT22;26642;55.766;37.828;2023-07-08T13:20:58;25.00;66.80
40636;DHT22;26642;55.766;37.828;2023-07-08T13:23:24;25.10;67.30
40636;DHT22;26642;55.766;37.828;2023-07-08T13:25:52;25.10;67.40
40636;DHT22;26642;55.766;37.828;2023-07-08T13:28:27;25.20;67.20
40636;DHT22;26642;55.766;37.828;2023-07-08T13:31:02;25.10;65.40
40636;DHT22;26642;55.766;37.828;2023-07-08T13:33:32;25.00;65.00
40636;DHT22;26642;55.766;37.828;2023-07-08T13:36:02;24.90;64.20
40636;DHT22;26642;55.766;37.828;2023-07-08T13:38:34;24.90;65.40
40636;DHT22;26642;55.766;37.828;2023-07-08T13:41:05;24.90;65.50
40636;DHT22;26642;55.766;37.828;2023-07-08T13:43:33;24.90;66.10
40636;DHT22;26642;55.766;37.828;2023-07-08T13:46:00;24.80;65.90
40636;DHT22;26642;55.766;37.828;2023-07-08T13:48:43;24.70;66.10
40636;DHT22;26642;55.766;37.828;2023-07-08T13:51:18;24.80;67.30
40636;DHT22;26642;55.766;37.828;2023-07-08T13:53:47;24.80;66.70
40636;DHT22;26642;55.766;37.828;2023-07-08T13:56:27;24.80;66.80
40636;DHT22;26642;55.766;37.828;2023-07-08T13:59:04;24.80;67.50
40636;DHT22;26642;55.766;37.828;2023-07-08T14:01:33;25.00;67.40
40636;DHT22;26642;55.766;37.828;2023-07-08T14:04:00;25.00;65.90
40636;DHT22;26642;55.766;37.828;2023-07-08T14:06:32;24.80;66.10
40636;DHT22;26642;55.766;37.828;2023-07-08T14:09:14;24.80;65.60
40636;DHT22;26642;55.766;37.828;2023-07-08T14:11:42;24.70;65.90
40636;DHT22;26642;55.766;37.828;2023-07-08T14:14:09;24.80;66.30
40636;DHT22;26642;55.766;37.828;2023-07-08T14:16:37;24.80;66.50
40636;DHT22;26642;55.766;37.828;2023-07-08T14:19:05;24.80;66.90
40636;DHT22;26642;55.766;37.828;2023-07-08T14:21:33;24.90;66.10
40636;DHT22;26642;55.766;37.828;2023-07-08T14:24:00;24.80;66.40
40636;DHT22;26642;55.766;37.828;2023-07-08T14:26:28;24.80;66.20
40636;DHT22;26642;55.766;37.828;2023-07-08T14:28:55;24.80;66.70
40636;DHT22;26642;55.766;37.828;2023-07-08T14:31:23;24.80;66.60
40636;DHT22;26642;55.766;37.828;2023-07-08T14:33:57;24.80;66.80
40636;DHT22;26642;55.766;37.828;2023-07-08T14:36:25;24.80;65.90
40636;DHT22;26642;55.766;37.828;2023-07-08T14:38:51;24.80;65.30
40636;DHT22;26642;55.766;37.828;2023-07-08T14:41:17;24.60;63.80
40636;DHT22;26642;55.766;37.828;2023-07-08T14:43:43;24.60;65.30
40636;DHT22;26642;55.766;37.828;2023-07-08T14:46:10;24.60;64.80
40636;DHT22;26642;55.766;37.828;2023-07-08T14:48:36;24.60;64.80
40636;DHT22;26642;55.766;37.828;2023-07-08T14:51:02;24.60;62.70
40636;DHT22;26642;55.766;37.828;2023-07-08T14:53:28;24.70;62.50
40636;DHT22;26642;55.766;37.828;2023-07-08T14:55:55;24.70;62.10
40636;DHT22;26642;55.766;37.828;2023-07-08T14:58:26;24.60;62.30
40636;DHT22;26642;55.766;37.828;2023-07-08T15:00:55;24.60;62.30
40636;DHT22;26642;55.766;37.828;2023-07-08T15:03:25;24.70;63.00
40636;DHT22;26642;55.766;37.828;2023-07-08T15:05:51;24.60;61.90
40636;DHT22;26642;55.766;37.828;2023-07-08T15:08:17;24.70;62.50
40636;DHT22;26642;55.766;37.828;2023-07-08T15:10:51;24.70;62.30
40636;DHT22;26642;55.766;37.828;2023-07-08T15:13:23;24.60;60.80
40636;DHT22;26642;55.766;37.828;2023-07-08T15:15:50;24.60;62.00
40636;DHT22;26642;55.766;37.828;2023-07-08T15:18:18;24.70;62.30
40636;DHT22;26642;55.766;37.828;2023-07-08T15:20:45;24.60;61.00
40636;DHT22;26642;55.766;37.828;2023-07-08T15:23:11;24.50;62.40
40636;DHT22;26642;55.766;37.828;2023-07-08T15:25:43;24.50;61.90
40636;DHT22;26642;55.766;37.828;2023-07-08T15:28:32;24.50;62.90
40636;DHT22;26642;55.766;37.828;2023-07-08T15:30:58;24.50;61.30
40636;DHT22;26642;55.766;37.828;2023-07-08T15:33:25;24.50;62.00
40636;DHT22;26642;55.766;37.828;2023-07-08T15:35:51;24.40;61.30
40636;DHT22;26642;55.766;37.828;2023-07-08T15:38:18;24.50;61.90
40636;DHT22;26642;55.766;37.828;2023-07-08T15:40:44;24.60;61.60
40636;DHT22;26642;55.766;37.828;2023-07-08T15:43:13;24.60;61.70
40636;DHT22;26642;55.766;37.828;2023-07-08T15:45:40;24.60;61.90
40636;DHT22;26642;55.766;37.828;2023-07-08T15:48:16;24.60;60.50
40636;DHT22;26642;55.766;37.828;2023-07-08T15:50:43;24.60;60.50
40636;DHT22;26642;55.766;37.828;2023-07-08T15:53:10;24.50;61.70
40636;DHT22;26642;55.766;37.828;2023-07-08T15:55:39;24.50;60.70
40636;DHT22;26642;55.766;37.828;2023-07-08T16:00:51;24.40;60.90
40636;DHT22;26642;55.766;37.828;2023-07-08T16:03:29;24.60;60.80
40636;DHT22;26642;55.766;37.828;2023-07-08T16:05:56;24.60;60.30
40636;DHT22;26642;55.766;37.828;2023-07-08T16:08:23;24.50;60.40
40636;DHT22;26642;55.766;37.828;2023-07-08T16:10:58;24.40;61.50
40636;DHT22;26642;55.766;37.828;2023-07-08T16:13:34;24.40;61.10
40636;DHT22;26642;55.766;37.828;2023-07-08T16:16:00;24.40;60.80
40636;DHT22;26642;55.766;37.828;2023-07-08T16:18:27;24.30;61.00
40636;DHT22;26642;55.766;37.828;2023-07-08T16:20:53;24.20;61.40
40636;DHT22;26642;55.766;37.828;2023-07-08T16:23:18;24.30;62.10
40636;DHT22;26642;55.766;37.828;2023-07-08T16:25:47;24.40;61.30
40636;DHT22;26642;55.766;37.828;2023-07-08T16:28:32;24.40;61.60
40636;DHT22;26642;55.766;37.828;2023-07-08T16:30:59;24.30;61.70